Time;durP1;ratioP1;P1;durP2;ratioP2;P2;SDS_P1;SDS_P2;PMS_P1;PMS_P2;Temp;Humidity;BMP_temperature;BMP_pressure;BME280_temperature;BME280_humidity;BME280_pressure;Samples;Min_cycle;Max_cycle;Signal;HPM_P1;HPM_P2
2023/12/22 00:00:36;;;;;;;;;;;;;;;-144.99;77.03;52721.22;5046984;28;19962;-69
2023/12/22 00:03:03;;;;;;;;;;;;;;;-144.99;77.03;52749.78;5047759;28;19924;-69
2023/12/22 00:05:29;;;;;;;;;;;;;;;-144.99;77.21;52704.94;5048090;28;19924;-69
2023/12/22 00:07:57;;;;;;;;;;;;;;;-144.99;77.33;52741.63;5047454;28;20008;-69
2023/12/22 00:10:23;;;;;;;;;;;;;;;-144.99;77.70;52733.47;5045525;28;20015;-69
2023/12/22 00:12:50;;;;;;;;;;;;;;;-144.99;77.45;52733.47;5046887;28;20054;-69
2023/12/22 00:15:16;;;;;;;;;;;;;;;-144.99;77.38;52686.59;5046930;28;19986;-67
2023/12/22 00:17:43;;;;;;;;;;;;;;;-144.99;77.34;52739.56;5044614;28;20036;-68
2023/12/22 00:20:13;;;;;;;;;;;;;;;-144.99;77.72;52729.38;5045715;28;19967;-67
2023/12/22 00:22:39;;;;;;;;;;;;;;;-144.99;77.67;52745.69;5045882;28;19925;-68
2023/12/22 00:25:09;;;;;;;;;;;;;;;-144.99;77.83;52729.38;5046503;28;19979;-69
2023/12/22 00:27:36;;;;;;;;;;;;;;;-144.99;78.24;52733.47;5045151;28;19935;-67
2023/12/22 00:30:02;;;;;;;;;;;;;;;-144.99;78.00;52733.47;5046658;28;20456;-68
2023/12/22 00:32:28;;;;;;;;;;;;;;;-144.99;77.00;52717.16;5042631;28;20019;-68
2023/12/22 00:34:56;;;;;;;;;;;;;;;-144.99;77.82;52749.78;5043422;28;20004;-65
2023/12/22 00:37:23;;;;;;;;;;;;;;;-144.99;78.41;52696.78;5046788;28;20364;-65
2023/12/22 00:39:49;;;;;;;;;;;;;;;-144.99;80.85;52717.16;5047041;28;19967;-65
2023/12/22 00:42:17;;;;;;;;;;;;;;;-144.99;84.58;52713.09;5048380;28;20174;-64
2023/12/22 00:44:43;;;;;;;;;;;;;;;-144.99;87.49;52762.00;5046355;28;20032;-64
2023/12/22 00:47:10;;;;;;;;;;;;;;;-144.99;88.74;52700.84;5050537;28;20015;-66
2023/12/22 00:49:36;;;;;;;;;;;;;;;-144.99;89.55;52743.66;5050572;28;20019;-64
2023/12/22 00:52:03;;;;;;;;;;;;;;;-144.99;89.51;52713.09;5046027;28;19968;-62
2023/12/22 00:54:31;;;;;;;;;;;;;;;-144.99;89.71;52672.31;5042060;28;20359;-68
2023/12/22 00:56:58;;;;;;;;;;;;;;;-144.99;89.41;52725.31;5049579;28;20436;-66
2023/12/22 00:59:25;;;;;;;;;;;;;;;-144.99;89.51;52713.09;5050145;28;19929;-69
2023/12/22 01:01:52;;;;;;;;;;;;;;;-144.99;89.48;52704.94;5050409;28;20092;-69
2023/12/22 01:04:18;;;;;;;;;;;;;;;-144.99;90.00;52717.16;5049595;28;20021;-69
2023/12/22 01:06:45;;;;;;;;;;;;;;;-144.99;90.53;52721.22;5048885;28;19948;-66
2023/12/22 01:09:11;;;;;;;;;;;;;;;-144.99;91.54;52709.00;5049808;28;20437;-66
2023/12/22 01:11:38;;;;;;;;;;;;;;;-144.99;92.37;52709.00;5043644;28;19925;-66
2023/12/22 01:14:06;;;;;;;;;;;;;;;-144.99;94.50;52737.53;5049447;28;20016;-66
2023/12/22 01:16:34;;;;;;;;;;;;;;;-144.99;95.55;52766.09;5044876;28;20463;-66
2023/12/22 01:19:01;;;;;;;;;;;;;;;-144.99;95.43;52745.69;5044171;28;19990;-66
2023/12/22 01:21:27;;;;;;;;;;;;;;;-144.99;96.70;52719.19;5050547;28;19925;-70
2023/12/22 01:23:54;;;;;;;;;;;;;;;-144.99;96.91;52766.09;5049351;28;19932;-70
2023/12/22 01:26:20;;;;;;;;;;;;;;;-144.99;98.42;52721.22;5045752;28;19943;-70
2023/12/22 01:28:47;;;;;;;;;;;;;;;-144.99;99.45;52717.16;5043214;28;19956;-70
2023/12/22 01:31:13;;;;;;;;;;;;;;;-144.99;100.00;52762.00;5047443;28;19971;-70
2023/12/22 01:33:41;;;;;;;;;;;;;;;-144.99;100.00;52725.31;5049775;28;19929;-70
2023/12/22 01:36:08;;;;;;;;;;;;;;;-144.99;100.00;52727.34;5052574;28;19963;-71
2023/12/22 01:38:34;;;;;;;;;;;;;;;-144.99;100.00;52751.81;5049537;28;20472;-69
2023/12/22 01:41:00;;;;;;;;;;;;;;;-144.99;100.00;52743.66;5049776;28;20019;-70
2023/12/22 01:43:27;;;;;;;;;;;;;;;-144.99;100.00;52725.31;5047416;28;20445;-68
2023/12/22 01:45:56;;;;;;;;;;;;;;;-144.99;100.00;52684.53;5049534;28;19964;-67
2023/12/22 01:48:24;;;;;;;;;;;;;;;-144.99;100.00;52733.47;5046434;28;20015;-66
2023/12/22 01:50:52;;;;;;;;;;;;;;;-144.99;100.00;52741.63;5049550;28;19935;-66
2023/12/22 01:53:20;;;;;;;;;;;;;;;-144.99;100.00;52762.00;5047648;28;20023;-64
2023/12/22 01:55:47;;;;;;;;;;;;;;;-144.99;100.00;52717.16;5048787;28;20160;-66
2023/12/22 01:58:13;;;;;;;;;;;;;;;-144.99;100.00;52721.22;5048648;28;19982;-66
2023/12/22 02:00:40;;;;;;;;;;;;;;;-144.99;100.00;52770.16;5043808;28;20014;-67
2023/12/22 02:03:07;;;;;;;;;;;;;;;-144.99;100.00;52729.38;5047677;28;20190;-62
2023/12/22 02:05:33;;;;;;;;;;;;;;;-144.99;100.00;52733.47;5046224;28;20019;-62
2023/12/22 02:08:01;;;;;;;;;;;;;;;-144.99;100.00;52725.31;5045803;28;20018;-62
2023/12/22 02:10:27;;;;;;;;;;;;;;;-144.99;100.00;52733.47;5040997;28;19960;-62
2023/12/22 02:12:54;;;;;;;;;;;;;;;-144.99;100.00;52723.28;5048310;28;19929;-61
2023/12/22 02:15:20;;;;;;;;;;;;;;;-144.99;100.00;52729.38;5045785;28;20026;-62
2023/12/22 02:17:50;;;;;;;;;;;;;;;-144.99;100.00;52692.69;5046842;28;19944;-62
2023/12/22 02:20:17;;;;;;;;;;;;;;;-144.99;100.00;52729.38;5046864;28;19933;-61
2023/12/22 02:22:45;;;;;;;;;;;;;;;-144.99;100.00;52733.47;5047793;28;19987;-61
2023/12/22 02:25:11;;;;;;;;;;;;;;;-144.99;100.00;52729.38;5048786;28;20011;-61
2023/12/22 02:27:41;;;;;;;;;;;;;;;-144.99;100.00;52729.38;5046430;28;20007;-61
2023/12/22 02:30:09;;;;;;;;;;;;;;;-144.99;100.00;52715.13;5047212;28;19925;-60
2023/12/22 02:32:37;;;;;;;;;;;;;;;-144.99;100.00;52725.31;5046657;28;19983;-59
2023/12/22 02:35:04;;;;;;;;;;;;;;;-144.99;100.00;52729.38;5050935;28;19951;-65
2023/12/22 02:37:32;;;;;;;;;;;;;;;-144.99;100.00;52717.16;5043783;28;20327;-66
2023/12/22 02:40:00;;;;;;;;;;;;;;;-144.99;100.00;52717.16;5052262;28;19995;-67
2023/12/22 02:42:30;;;;;;;;;;;;;;;-144.99;100.00;52749.78;5043610;28;20405;-67
2023/12/22 02:44:57;;;;;;;;;;;;;;;-144.99;100.00;52706.97;5049704;28;19997;-67
2023/12/22 02:47:24;;;;;;;;;;;;;;;-144.99;100.00;52725.31;5052016;28;20018;-68
2023/12/22 02:49:50;;;;;;;;;;;;;;;-144.99;100.00;52696.78;5051652;28;19994;-69
2023/12/22 02:52:17;;;;;;;;;;;;;;;-144.99;100.00;52700.84;5049603;28;20258;-70
2023/12/22 02:54:43;;;;;;;;;;;;;;;-144.99;100.00;52704.94;5050051;28;19967;-69
2023/12/22 02:57:11;;;;;;;;;;;;;;;-144.99;100.00;52696.78;5050964;28;20256;-68
2023/12/22 02:59:38;;;;;;;;;;;;;;;-144.99;100.00;52737.53;5048044;28;19955;-68
2023/12/22 03:02:04;;;;;;;;;;;;;;;-144.99;100.00;52741.63;5045416;28;19975;-68
2023/12/22 03:04:31;;;;;;;;;;;;;;;-144.99;100.00;52694.72;5047464;28;19968;-67
2023/12/22 03:06:57;;;;;;;;;;;;;;;-144.99;100.00;52709.00;5048162;28;19982;-67
2023/12/22 03:09:24;;;;;;;;;;;;;;;-144.99;99.68;52713.09;5048276;28;19952;-68
2023/12/22 03:11:51;;;;;;;;;;;;;;;-144.99;99.16;52739.56;5046905;28;19986;-69
2023/12/22 03:14:19;;;;;;;;;;;;;;;-144.99;98.57;52721.22;5038575;28;20123;-69
2023/12/22 03:16:46;;;;;;;;;;;;;;;-144.99;98.08;52684.53;5047928;28;20023;-68
2023/12/22 03:19:12;;;;;;;;;;;;;;;-144.99;98.92;52713.09;5047653;28;19940;-68
2023/12/22 03:21:38;;;;;;;;;;;;;;;-144.99;99.64;52717.16;5106945;22;19927;-68
2023/12/22 03:24:05;;;;;;;;;;;;;;;-144.99;99.31;52737.53;5125059;27;19958;-69
2023/12/22 03:26:32;;;;;;;;;;;;;;;-144.99;99.45;52704.94;5124735;27;20003;-68
2023/12/22 03:28:58;;;;;;;;;;;;;;;-144.99;99.92;52694.72;5125946;27;20483;-69
2023/12/22 03:31:26;;;;;;;;;;;;;;;-144.99;99.90;52696.78;5109106;28;19924;-69
2023/12/22 03:33:52;;;;;;;;;;;;;;;-144.99;100.00;52725.31;5113060;27;19959;-68
2023/12/22 03:36:19;;;;;;;;;;;;;;;-144.99;100.00;52709.00;5111533;27;19928;-68
2023/12/22 03:38:45;;;;;;;;;;;;;;;-144.99;100.00;52709.00;5120253;28;19924;-67
2023/12/22 03:41:12;;;;;;;;;;;;;;;-144.99;100.00;52668.22;5118018;27;20018;-68
2023/12/22 03:43:38;;;;;;;;;;;;;;;-144.99;100.00;52711.03;5117128;28;19923;-68
2023/12/22 03:46:05;;;;;;;;;;;;;;;-144.99;99.35;52713.09;5127551;27;19966;-68
2023/12/22 03:48:32;;;;;;;;;;;;;;;-144.99;98.92;52709.00;5109398;28;20385;-68
2023/12/22 03:50:59;;;;;;;;;;;;;;;-144.99;98.72;52702.88;5118047;27;19970;-68
2023/12/22 03:53:25;;;;;;;;;;;;;;;-144.99;98.72;52766.09;5115773;28;19923;-68
2023/12/22 03:55:52;;;;;;;;;;;;;;;-144.99;99.76;52721.22;5110044;28;19992;-68
2023/12/22 03:58:18;;;;;;;;;;;;;;;-144.99;99.67;52713.09;5116684;27;20003;-65
2023/12/22 04:00:45;;;;;;;;;;;;;;;-144.99;99.65;52709.00;5123546;27;19987;-64
2023/12/22 04:03:11;;;;;;;;;;;;;;;-144.99;99.81;52729.38;5111043;28;19928;-64
2023/12/22 04:05:39;;;;;;;;;;;;;;;-144.99;100.00;52727.34;5125300;27;19959;-68
2023/12/22 04:08:06;;;;;;;;;;;;;;;-144.99;100.00;52715.13;5114213;27;20016;-68
2023/12/22 04:10:33;;;;;;;;;;;;;;;-144.99;100.00;52709.00;5123106;28;20240;-69
2023/12/22 04:12:59;;;;;;;;;;;;;;;-144.99;100.00;52745.69;5119460;27;19934;-69
2023/12/22 04:15:25;;;;;;;;;;;;;;;-144.99;100.00;52711.03;5110898;28;20388;-71
2023/12/22 04:17:52;;;;;;;;;;;;;;;-144.99;99.05;52725.31;5117592;27;19930;-70
2023/12/22 04:20:18;;;;;;;;;;;;;;;-144.99;98.87;52713.09;5117170;27;20010;-71
2023/12/22 04:22:46;;;;;;;;;;;;;;;-144.99;98.14;52755.88;5129140;27;20043;-71
2023/12/22 04:25:13;;;;;;;;;;;;;;;-144.99;97.65;52725.31;5114795;27;20005;-69
2023/12/22 04:27:39;;;;;;;;;;;;;;;-144.99;96.43;52713.09;5119717;27;19982;-68
2023/12/22 04:30:06;;;;;;;;;;;;;;;-144.99;95.04;52770.16;5112276;27;19928;-68
2023/12/22 04:32:33;;;;;;;;;;;;;;;-144.99;94.89;52709.00;5123981;27;19985;-69
2023/12/22 04:34:59;;;;;;;;;;;;;;;-144.99;93.76;52713.09;5123562;27;19934;-68
2023/12/22 04:37:26;;;;;;;;;;;;;;;-144.99;93.35;52676.38;5121693;27;20046;-68
2023/12/22 04:39:54;;;;;;;;;;;;;;;-144.99;93.35;52709.00;5115983;27;19924;-68
2023/12/22 04:42:20;;;;;;;;;;;;;;;-144.99;93.22;52672.31;5115739;27;19931;-69
2023/12/22 04:44:47;;;;;;;;;;;;;;;-144.99;93.48;52723.28;5125937;27;20006;-65
2023/12/22 04:47:14;;;;;;;;;;;;;;;-144.99;92.97;52729.38;5125444;27;20015;-64
2023/12/22 04:49:40;;;;;;;;;;;;;;;-144.99;93.10;52733.47;5120083;27;19935;-64
2023/12/22 04:52:07;;;;;;;;;;;;;;;-144.99;93.57;52735.50;5121836;27;20014;-63
2023/12/22 04:54:33;;;;;;;;;;;;;;;-144.99;93.91;52717.16;5120261;27;20321;-65
2023/12/22 04:57:01;;;;;;;;;;;;;;;-144.99;94.16;52715.13;5112140;28;19983;-64
2023/12/22 04:59:27;;;;;;;;;;;;;;;-144.99;96.21;52680.47;5117186;27;20026;-65
2023/12/22 05:01:54;;;;;;;;;;;;;;;-144.99;98.75;52704.94;5110313;27;19966;-62
2023/12/22 05:04:21;;;;;;;;;;;;;;;-144.99;100.00;52700.84;5114110;27;19927;-70
2023/12/22 05:06:47;;;;;;;;;;;;;;;-144.99;100.00;52729.38;5121840;27;19928;-69
2023/12/22 05:09:14;;;;;;;;;;;;;;;-144.99;100.00;52721.22;5123519;27;19992;-70
2023/12/22 05:11:40;;;;;;;;;;;;;;;-144.99;100.00;52717.16;5118686;27;20014;-70
2023/12/22 05:14:08;;;;;;;;;;;;;;;-144.99;100.00;52737.53;5122538;27;19927;-70
2023/12/22 05:16:34;;;;;;;;;;;;;;;-144.99;100.00;52721.22;5120410;27;19923;-70
2023/12/22 05:19:01;;;;;;;;;;;;;;;-144.99;100.00;52717.16;5124305;27;19972;-69
2023/12/22 05:21:28;;;;;;;;;;;;;;;-144.99;100.00;52729.38;5117407;27;20269;-70
2023/12/22 05:23:54;;;;;;;;;;;;;;;-144.99;100.00;52725.31;5109616;27;19934;-70
2023/12/22 05:26:21;;;;;;;;;;;;;;;-144.99;100.00;52680.47;5113497;27;19958;-66
2023/12/22 05:28:49;;;;;;;;;;;;;;;-144.99;100.00;52729.38;5110099;27;20392;-69
2023/12/22 05:31:17;;;;;;;;;;;;;;;-144.99;100.00;52717.16;5119850;27;19927;-68
2023/12/22 05:33:43;;;;;;;;;;;;;;;-144.99;100.00;52729.38;5118263;27;19927;-68
2023/12/22 05:36:10;;;;;;;;;;;;;;;-144.99;100.00;52721.22;5121362;27;19966;-68
2023/12/22 05:38:38;;;;;;;;;;;;;;;-144.99;100.00;52721.22;5121341;27;20014;-68
2023/12/22 05:41:04;;;;;;;;;;;;;;;-144.99;100.00;52713.09;5126955;27;19924;-68
2023/12/22 05:43:31;;;;;;;;;;;;;;;-144.99;100.00;52725.31;5111141;27;19924;-69
2023/12/22 05:45:57;;;;;;;;;;;;;;;-144.99;100.00;52721.22;5125114;27;20093;-68
2023/12/22 05:48:25;;;;;;;;;;;;;;;-144.99;100.00;52725.31;5117291;27;20015;-67
2023/12/22 05:50:52;;;;;;;;;;;;;;;-144.99;100.00;52725.31;5120645;27;19978;-68
2023/12/22 05:53:18;;;;;;;;;;;;;;;-144.99;100.00;52672.31;5121455;27;19939;-69
2023/12/22 05:55:45;;;;;;;;;;;;;;;-144.99;100.00;52676.38;5113811;27;19998;-68
2023/12/22 05:58:11;;;;;;;;;;;;;;;-144.99;100.00;52733.47;5117464;27;19955;-65
2023/12/22 06:00:38;;;;;;;;;;;;;;;-144.99;100.00;52725.31;5117850;27;19924;-68
2023/12/22 06:03:05;;;;;;;;;;;;;;;-144.99;100.00;52729.38;5110807;28;20010;-66
2023/12/22 06:05:33;;;;;;;;;;;;;;;-144.99;100.00;52717.16;5111872;27;19946;-68
2023/12/22 06:07:59;;;;;;;;;;;;;;;-144.99;100.00;52696.78;5116055;27;20449;-68
2023/12/22 06:10:26;;;;;;;;;;;;;;;-144.99;100.00;52721.22;5114220;27;20448;-66
2023/12/22 06:12:52;;;;;;;;;;;;;;;-144.99;100.00;52688.63;5113101;27;20495;-70
2023/12/22 06:15:19;;;;;;;;;;;;;;;-144.99;98.98;52704.94;5128587;27;20374;-70
2023/12/22 06:17:45;;;;;;;;;;;;;;;-144.99;98.92;52715.13;5120407;27;19995;-72
2023/12/22 06:20:12;;;;;;;;;;;;;;;-144.99;98.04;52709.00;5126678;27;19931;-71
2023/12/22 06:22:40;;;;;;;;;;;;;;;-144.99;97.41;52727.34;4766136;27;10000092;-71
2023/12/22 06:25:07;;;;;;;;;;;;;;;-144.99;94.01;52721.22;5119332;27;19928;-71
2023/12/22 06:27:33;;;;;;;;;;;;;;;-144.99;92.34;52721.22;5116965;27;19992;-71
2023/12/22 06:30:00;;;;;;;;;;;;;;;-144.99;89.53;52717.16;5123831;27;19927;-71
2023/12/22 06:32:26;;;;;;;;;;;;;;;-144.99;88.47;52729.38;5117677;27;20054;-72
2023/12/22 06:34:53;;;;;;;;;;;;;;;-144.99;91.04;52709.00;5125579;27;20024;-72
2023/12/22 06:37:19;;;;;;;;;;;;;;;-144.99;88.84;52717.16;5116958;27;19971;-71
2023/12/22 06:39:47;;;;;;;;;;;;;;;-144.99;88.95;52676.38;5106129;27;20026;-72
2023/12/22 06:42:13;;;;;;;;;;;;;;;-144.99;89.81;52766.09;5108678;27;20340;-71
2023/12/22 06:44:42;;;;;;;;;;;;;;;-144.99;90.56;52729.38;5112066;27;19962;-73
2023/12/22 06:47:08;;;;;;;;;;;;;;;-144.99;91.91;52725.31;5108180;27;20174;-71
2023/12/22 06:49:35;;;;;;;;;;;;;;;-144.99;92.46;52729.38;5119843;27;20011;-71
2023/12/22 06:52:02;;;;;;;;;;;;;;;-144.99;94.57;52709.00;5107937;27;20485;-71
2023/12/22 06:54:29;;;;;;;;;;;;;;;-144.99;92.89;52713.09;5124448;27;19928;-71
2023/12/22 06:56:56;;;;;;;;;;;;;;;-144.99;93.41;52749.78;5117407;27;20010;-71
2023/12/22 06:59:23;;;;;;;;;;;;;;;-144.99;93.43;52704.94;5113629;27;20047;-72
2023/12/22 07:01:49;;;;;;;;;;;;;;;-144.99;93.53;52700.84;5111816;27;20022;-71
2023/12/22 07:04:16;;;;;;;;;;;;;;;-144.99;93.02;52704.94;5124286;27;19932;-71
2023/12/22 07:06:42;;;;;;;;;;;;;;;-144.99;92.76;52745.69;5131484;27;20003;-71
2023/12/22 07:09:28;;;;;;;;;;;;;;;-144.99;93.12;52696.78;5116485;27;19988;-71
2023/12/22 07:11:55;;;;;;;;;;;;;;;-144.99;92.71;52700.84;5113652;27;19935;-71
2023/12/22 07:14:23;;;;;;;;;;;;;;;-144.99;92.40;52704.94;5105276;27;19939;-71
2023/12/22 07:16:50;;;;;;;;;;;;;;;-144.99;91.61;52717.16;5113328;27;19927;-71
2023/12/22 07:19:16;;;;;;;;;;;;;;;-144.99;91.13;52680.47;5107966;28;20346;-71
2023/12/22 07:21:43;;;;;;;;;;;;;;;-144.99;92.03;52664.16;5118348;27;19966;-71
2023/12/22 07:24:09;;;;;;;;;;;;;;;-144.99;91.80;52688.63;5112350;27;20023;-71
2023/12/22 07:26:36;;;;;;;;;;;;;;;-144.99;93.33;52698.81;5110404;28;19973;-71
2023/12/22 07:29:02;;;;;;;;;;;;;;;-144.99;96.59;52733.47;5111284;27;19970;-71
2023/12/22 07:31:30;;;;;;;;;;;;;;;-144.99;98.82;52709.00;5114808;27;19959;-70
2023/12/22 07:33:57;;;;;;;;;;;;;;;-144.99;99.73;52713.09;5106130;28;20431;-70
2023/12/22 07:36:23;;;;;;;;;;;;;;;-144.99;99.08;52729.38;5112658;27;19959;-70
2023/12/22 07:38:49;;;;;;;;;;;;;;;-144.99;99.26;52753.84;5116405;27;19974;-70
2023/12/22 07:41:16;;;;;;;;;;;;;;;-144.99;99.18;52721.22;5124578;27;19923;-70
2023/12/22 07:43:42;;;;;;;;;;;;;;;-144.99;99.31;52723.28;5110944;28;20024;-70
2023/12/22 07:46:09;;;;;;;;;;;;;;;-144.99;98.97;52741.63;5113710;28;20033;-70
2023/12/22 07:48:37;;;;;;;;;;;;;;;-144.99;98.79;52721.22;5106491;28;20296;-70
2023/12/22 07:51:04;;;;;;;;;;;;;;;-144.99;98.72;52704.94;5108112;28;20326;-70
2023/12/22 07:53:30;;;;;;;;;;;;;;;-144.99;98.16;52721.22;5112170;27;20105;-70
2023/12/22 07:55:59;;;;;;;;;;;;;;;-144.99;98.77;52696.78;5117481;27;20018;-71
2023/12/22 07:58:25;;;;;;;;;;;;;;;-144.99;99.23;52723.28;5115879;27;19979;-70
2023/12/22 08:00:51;;;;;;;;;;;;;;;-144.99;99.64;52680.47;5120776;27;19927;-71
2023/12/22 08:03:19;;;;;;;;;;;;;;;-144.99;100.00;52721.22;5126618;27;19927;-71
2023/12/22 08:05:47;;;;;;;;;;;;;;;-144.99;100.00;52680.47;5126659;27;20326;-71
2023/12/22 08:08:13;;;;;;;;;;;;;;;-144.99;100.00;52700.84;5112899;27;20017;-71
2023/12/22 08:10:40;;;;;;;;;;;;;;;-144.99;100.00;52647.84;5114900;27;20338;-71
2023/12/22 08:13:06;;;;;;;;;;;;;;;-144.99;100.00;52725.31;5122290;27;20312;-71
2023/12/22 08:15:33;;;;;;;;;;;;;;;-144.99;100.00;52706.97;5122735;27;19928;-72
2023/12/22 08:17:59;;;;;;;;;;;;;;;-144.99;100.00;52729.38;5122055;27;19959;-72
2023/12/22 08:20:26;;;;;;;;;;;;;;;-144.99;100.00;52698.81;5111375;27;20267;-72
2023/12/22 08:22:53;;;;;;;;;;;;;;;-144.99;100.00;52721.22;5115813;27;20413;-71
2023/12/22 08:25:20;;;;;;;;;;;;;;;-144.99;100.00;52753.84;5122738;27;19981;-71
2023/12/22 08:27:47;;;;;;;;;;;;;;;-144.99;100.00;52709.00;5127767;27;19971;-71
2023/12/22 08:30:14;;;;;;;;;;;;;;;-144.99;100.00;52709.00;5125008;27;20274;-70
2023/12/22 08:32:41;;;;;;;;;;;;;;;-144.99;99.30;52680.47;5115803;27;20457;-73
2023/12/22 08:35:07;;;;;;;;;;;;;;;-144.99;97.63;52678.44;5113173;27;19931;-71
2023/12/22 08:37:34;;;;;;;;;;;;;;;-144.99;96.50;52735.50;5114142;27;19928;-72
2023/12/22 08:40:02;;;;;;;;;;;;;;;-144.99;93.82;52676.38;5116234;27;20043;-71
2023/12/22 08:42:30;;;;;;;;;;;;;;;-144.99;91.25;52643.78;5109879;27;19927;-73
2023/12/22 08:44:56;;;;;;;;;;;;;;;-144.99;90.61;52680.47;5113217;27;20300;-71
2023/12/22 08:47:23;;;;;;;;;;;;;;;-144.99;90.39;52725.31;5111229;27;20381;-71
2023/12/22 08:49:49;;;;;;;;;;;;;;;-144.99;91.04;52692.69;5112668;27;19936;-70
2023/12/22 08:52:16;;;;;;;;;;;;;;;-144.99;90.77;52674.34;5112352;27;19978;-71
2023/12/22 08:54:42;;;;;;;;;;;;;;;-144.99;91.45;52676.38;5119212;27;19995;-71
2023/12/22 08:57:10;;;;;;;;;;;;;;;-144.99;91.08;52676.38;5117333;27;20440;-71
2023/12/22 08:59:37;;;;;;;;;;;;;;;-144.99;90.19;52706.97;5117483;27;19927;-71
2023/12/22 09:02:03;;;;;;;;;;;;;;;-144.99;90.21;52676.38;5108913;27;20000;-71
2023/12/22 09:04:30;;;;;;;;;;;;;;;-144.99;88.27;52674.34;5110317;27;20328;-71
2023/12/22 09:06:56;;;;;;;;;;;;;;;-144.99;88.77;52719.19;5124925;27;19935;-71
2023/12/22 09:09:24;;;;;;;;;;;;;;;-144.99;88.24;52692.69;5121193;27;19931;-71
2023/12/22 09:11:51;;;;;;;;;;;;;;;-144.99;87.71;52700.84;5111682;28;19927;-71
2023/12/22 09:14:18;;;;;;;;;;;;;;;-144.99;85.98;52688.63;5112999;27;19931;-71
2023/12/22 09:16:45;;;;;;;;;;;;;;;-144.99;84.75;52688.63;5120122;27;20041;-71
2023/12/22 09:19:12;;;;;;;;;;;;;;;-144.99;83.01;52704.94;5121640;27;20047;-70
2023/12/22 09:21:38;;;;;;;;;;;;;;;-144.99;83.33;52664.16;5121659;27;19928;-69
2023/12/22 09:24:05;;;;;;;;;;;;;;;-144.99;82.65;52692.69;5123414;27;20035;-70
2023/12/22 09:26:32;;;;;;;;;;;;;;;-144.99;80.84;52643.78;5116091;27;20336;-70
2023/12/22 09:28:58;;;;;;;;;;;;;;;-144.99;79.46;52658.03;5120280;27;20016;-70
2023/12/22 09:31:26;;;;;;;;;;;;;;;-144.99;79.90;52664.16;5126095;27;19976;-70
2023/12/22 09:33:53;;;;;;;;;;;;;;;-144.99;79.14;52686.59;4753313;27;10000169;-70
2023/12/22 09:36:19;;;;;;;;;;;;;;;-144.99;79.16;52603.00;5115963;27;20047;-70
2023/12/22 09:38:46;;;;;;;;;;;;;;;-144.99;78.32;52651.94;5106231;28;19975;-69
2023/12/22 09:41:12;;;;;;;;;;;;;;;-144.99;78.45;52637.66;5114825;27;20016;-73
2023/12/22 09:43:40;;;;;;;;;;;;;;;-144.99;78.79;52651.94;5107419;27;19951;-70
2023/12/22 09:46:07;;;;;;;;;;;;;;;-144.99;78.68;52639.69;5117218;27;19935;-69
2023/12/22 09:48:39;;;;;;;;;;;;;;;-144.99;76.98;52631.53;5108059;28;20401;-69
2023/12/22 09:51:06;;;;;;;;;;;;;;;-144.99;77.16;52686.59;5108839;28;20599;-69
2023/12/22 09:53:34;;;;;;;;;;;;;;;-144.99;78.84;52653.97;5120910;27;19932;-69
2023/12/22 09:56:01;;;;;;;;;;;;;;;-144.99;79.39;52637.66;5120071;27;19947;-69
2023/12/22 09:58:27;;;;;;;;;;;;;;;-144.99;79.21;52668.22;5122131;27;19941;-69
2023/12/22 10:00:56;;;;;;;;;;;;;;;-144.99;80.91;52684.53;5135209;27;19976;-70
2023/12/22 10:03:25;;;;;;;;;;;;;;;-144.99;81.65;52696.78;5127065;27;19950;-70
2023/12/22 10:05:53;;;;;;;;;;;;;;;-144.99;82.24;52656.00;5122327;27;19928;-71
2023/12/22 10:08:21;;;;;;;;;;;;;;;-144.99;83.64;52696.78;5123117;27;19958;-70
2023/12/22 10:10:47;;;;;;;;;;;;;;;-144.99;84.24;52690.66;5120070;27;19988;-71
2023/12/22 10:13:14;;;;;;;;;;;;;;;-144.99;84.58;52690.66;5119100;27;19928;-70
2023/12/22 10:15:41;;;;;;;;;;;;;;;-144.99;85.14;52680.47;5111716;27;20189;-70
2023/12/22 10:18:08;;;;;;;;;;;;;;;-144.99;84.96;52713.09;5114677;27;19934;-70
2023/12/22 10:20:35;;;;;;;;;;;;;;;-144.99;86.08;52700.84;5115466;27;20457;-71
2023/12/22 10:23:03;;;;;;;;;;;;;;;-144.99;86.09;52700.84;5123032;27;20075;-68
2023/12/22 10:25:30;;;;;;;;;;;;;;;-144.99;88.18;52688.63;5114116;27;19948;-70
2023/12/22 10:27:57;;;;;;;;;;;;;;;-144.99;89.93;52684.53;5113721;27;19959;-71
2023/12/22 10:30:24;;;;;;;;;;;;;;;-144.99;90.28;52696.78;5114303;27;19967;-68
2023/12/22 10:32:51;;;;;;;;;;;;;;;-144.99;91.85;52723.28;5092837;28;20334;-69
2023/12/22 10:35:17;;;;;;;;;;;;;;;-144.99;92.24;52725.31;5112690;27;19927;-70
2023/12/22 10:37:44;;;;;;;;;;;;;;;-144.99;94.32;52660.09;5114326;27;20026;-72
2023/12/22 10:40:13;;;;;;;;;;;;;;;-144.99;96.03;52717.16;5109465;27;20300;-71
2023/12/22 10:42:40;;;;;;;;;;;;;;;-144.99;97.45;52690.66;5117105;27;19964;-73
2023/12/22 10:45:08;;;;;;;;;;;;;;;-144.99;96.64;52688.63;5108813;27;20323;-71
2023/12/22 10:47:34;;;;;;;;;;;;;;;-144.99;96.56;52713.09;5108167;27;21041;-71
2023/12/22 10:50:02;;;;;;;;;;;;;;;-144.99;96.73;52692.69;5108909;27;20327;-72
2023/12/22 10:52:30;;;;;;;;;;;;;;;-144.99;96.42;52713.09;5106833;27;20393;-70
2023/12/22 10:54:58;;;;;;;;;;;;;;;-144.99;96.81;52688.63;5113374;27;20012;-69
2023/12/22 10:57:27;;;;;;;;;;;;;;;-144.99;97.21;52686.59;5113018;27;20038;-71
2023/12/22 10:59:53;;;;;;;;;;;;;;;-144.99;97.85;52704.94;5108233;27;19966;-70
2023/12/22 11:02:20;;;;;;;;;;;;;;;-144.99;98.37;52713.09;5111877;27;20418;-70
2023/12/22 11:04:51;;;;;;;;;;;;;;;-144.99;99.33;52692.69;5112726;27;20230;-71
2023/12/22 11:07:19;;;;;;;;;;;;;;;-144.99;99.36;52709.00;5111397;27;20408;-72
2023/12/22 11:09:50;;;;;;;;;;;;;;;-144.99;99.45;52745.69;5112965;27;20124;-71
2023/12/22 11:12:16;;;;;;;;;;;;;;;-144.99;99.53;52692.69;5110080;27;19927;-71
2023/12/22 11:14:44;;;;;;;;;;;;;;;-144.99;98.79;52719.19;5117000;27;19966;-72
2023/12/22 11:17:12;;;;;;;;;;;;;;;-144.99;98.64;52668.22;5116024;27;19987;-70
2023/12/22 11:19:40;;;;;;;;;;;;;;;-144.99;97.06;52562.25;5114996;27;19924;-70
2023/12/22 11:22:07;;;;;;;;;;;;;;;-144.99;92.45;52635.63;5114434;27;20393;-70
2023/12/22 11:24:34;;;;;;;;;;;;;;;-144.99;90.79;52631.53;5109174;27;20030;-70
2023/12/22 11:27:02;;;;;;;;;;;;;;;-144.99;89.87;52668.22;5110992;27;20177;-69
2023/12/22 11:29:30;;;;;;;;;;;;;;;-144.99;91.26;52545.94;5106103;27;19976;-70
2023/12/22 11:31:58;;;;;;;;;;;;;;;-144.99;86.84;52570.38;5109344;28;20479;-69
2023/12/22 11:34:27;;;;;;;;;;;;;;;-144.99;83.06;52525.56;5105414;27;19928;-70
2023/12/22 11:36:54;;;;;;;;;;;;;;;-144.99;80.50;52492.94;5106901;28;19979;-69
2023/12/22 11:39:22;;;;;;;;;;;;;;;-144.99;77.19;52509.25;5108076;28;20453;-70
2023/12/22 11:41:51;;;;;;;;;;;;;;;-144.99;74.30;52482.75;5110699;27;19992;-69
2023/12/22 11:44:18;;;;;;;;;;;;;;;-144.99;73.82;52484.78;4752939;27;9999898;-70
2023/12/22 11:46:44;;;;;;;;;;;;;;;-144.99;73.45;52444.03;5115330;27;20072;-70
2023/12/22 11:49:12;;;;;;;;;;;;;;;-144.99;71.40;52448.09;5105812;28;20000;-70
2023/12/22 11:51:39;;;;;;;;;;;;;;;-144.99;70.19;52444.03;5110809;27;19964;-70
2023/12/22 11:54:27;;;;;;;;;;;;;;;-144.99;70.22;52448.09;5115362;27;19927;-70
2023/12/22 11:56:53;;;;;;;;;;;;;;;-144.99;70.85;52452.16;5104500;28;20360;-71
2023/12/22 11:59:19;;;;;;;;;;;;;;;-144.99;70.00;52413.44;5109063;28;20000;-70
2023/12/22 12:01:55;;;;;;;;;;;;;;;-144.99;68.75;52423.63;5104875;28;19975;-70
2023/12/22 12:04:23;;;;;;;;;;;;;;;-144.99;68.48;52499.06;5115331;27;19971;-71
2023/12/22 12:06:50;;;;;;;;;;;;;;;-144.99;70.29;52558.16;5120613;27;20022;-71
2023/12/22 12:09:20;;;;;;;;;;;;;;;-144.99;71.85;52615.25;5108210;27;20014;-70
2023/12/22 12:12:04;;;;;;;;;;;;;;;-144.99;74.21;52639.69;5104033;28;19931;-71
2023/12/22 12:14:32;;;;;;;;;;;;;;;-144.99;74.86;52598.94;5094122;28;20227;-71
2023/12/22 12:17:04;;;;;;;;;;;;;;;-144.99;76.13;52619.31;5113413;27;20475;-70
2023/12/22 12:19:34;;;;;;;;;;;;;;;-144.99;77.06;52556.13;5108911;27;19996;-70
2023/12/22 12:22:01;;;;;;;;;;;;;;;-144.99;76.81;52594.84;5109587;27;19963;-70